sensor_id;sensor_type;location;lat;lon;timestamp;P1;durP1;ratioP1;P2;durP2;ratioP2
24401;SDS011;12539;48.808;11.292;2022-08-14T00:02:00;3.20;;;2.90;;
24401;SDS011;12539;48.808;11.292;2022-08-14T00:04:28;5.03;;;4.53;;
24401;SDS011;12539;48.808;11.292;2022-08-14T00:06:57;4.72;;;4.20;;
24401;SDS011;12539;48.808;11.292;2022-08-14T00:09:23;4.18;;;3.83;;
24401;SDS011;12539;48.808;11.292;2022-08-14T00:11:49;3.78;;;3.38;;
24401;SDS011;12539;48.808;11.292;2022-08-14T00:14:15;4.20;;;3.58;;
24401;SDS011;12539;48.808;11.292;2022-08-14T00:16:41;4.55;;;4.15;;
24401;SDS011;12539;48.808;11.292;2022-08-14T00:19:07;4.63;;;4.10;;
24401;SDS011;12539;48.808;11.292;2022-08-14T00:21:33;4.85;;;4.35;;
24401;SDS011;12539;48.808;11.292;2022-08-14T00:23:58;4.65;;;4.25;;
24401;SDS011;12539;48.808;11.292;2022-08-14T00:26:24;6.53;;;4.50;;
24401;SDS011;12539;48.808;11.292;2022-08-14T00:28:51;5.05;;;4.55;;
24401;SDS011;12539;48.808;11.292;2022-08-14T00:31:17;3.60;;;3.30;;
24401;SDS011;12539;48.808;11.292;2022-08-14T00:33:43;8.10;;;5.00;;
24401;SDS011;12539;48.808;11.292;2022-08-14T00:36:09;4.13;;;3.80;;
24401;SDS011;12539;48.808;11.292;2022-08-14T00:38:35;4.22;;;3.83;;
24401;SDS011;12539;48.808;11.292;2022-08-14T00:41:03;5.85;;;5.32;;
24401;SDS011;12539;48.808;11.292;2022-08-14T00:43:31;4.75;;;3.85;;
24401;SDS011;12539;48.808;11.292;2022-08-14T00:46:00;4.38;;;4.07;;
24401;SDS011;12539;48.808;11.292;2022-08-14T00:48:28;4.85;;;4.45;;
24401;SDS011;12539;48.808;11.292;2022-08-14T00:50:54;5.35;;;4.82;;
24401;SDS011;12539;48.808;11.292;2022-08-14T00:53:20;5.72;;;5.22;;
24401;SDS011;12539;48.808;11.292;2022-08-14T00:55:48;5.45;;;4.90;;
24401;SDS011;12539;48.808;11.292;2022-08-14T00:58:15;6.55;;;4.95;;
24401;SDS011;12539;48.808;11.292;2022-08-14T01:00:54;5.25;;;4.75;;
24401;SDS011;12539;48.808;11.292;2022-08-14T01:03:21;6.50;;;4.15;;
24401;SDS011;12539;48.808;11.292;2022-08-14T01:05:49;5.10;;;4.60;;
24401;SDS011;12539;48.808;11.292;2022-08-14T01:08:18;5.55;;;5.05;;
24401;SDS011;12539;48.808;11.292;2022-08-14T01:10:45;4.43;;;4.03;;
24401;SDS011;12539;48.808;11.292;2022-08-14T01:13:20;5.35;;;4.85;;
24401;SDS011;12539;48.808;11.292;2022-08-14T01:15:47;5.13;;;4.63;;
24401;SDS011;12539;48.808;11.292;2022-08-14T01:18:15;5.57;;;5.05;;
24401;SDS011;12539;48.808;11.292;2022-08-14T01:21:00;4.50;;;3.75;;
24401;SDS011;12539;48.808;11.292;2022-08-14T01:23:31;5.68;;;5.18;;
24401;SDS011;12539;48.808;11.292;2022-08-14T01:25:58;5.75;;;4.10;;
24401;SDS011;12539;48.808;11.292;2022-08-14T01:28:24;5.55;;;4.53;;
24401;SDS011;12539;48.808;11.292;2022-08-14T01:30:55;9.57;;;5.22;;
24401;SDS011;12539;48.808;11.292;2022-08-14T01:33:26;5.07;;;4.68;;
24401;SDS011;12539;48.808;11.292;2022-08-14T01:35:57;6.32;;;5.25;;
24401;SDS011;12539;48.808;11.292;2022-08-14T01:38:27;5.47;;;4.65;;
24401;SDS011;12539;48.808;11.292;2022-08-14T01:40:58;5.20;;;4.45;;
24401;SDS011;12539;48.808;11.292;2022-08-14T01:43:30;6.35;;;5.72;;
24401;SDS011;12539;48.808;11.292;2022-08-14T01:46:02;5.22;;;4.65;;
24401;SDS011;12539;48.808;11.292;2022-08-14T01:48:35;6.57;;;5.40;;
24401;SDS011;12539;48.808;11.292;2022-08-14T01:51:01;5.85;;;5.28;;
24401;SDS011;12539;48.808;11.292;2022-08-14T01:53:27;5.90;;;5.40;;
24401;SDS011;12539;48.808;11.292;2022-08-14T01:55:57;6.65;;;5.15;;
24401;SDS011;12539;48.808;11.292;2022-08-14T01:58:27;5.70;;;5.13;;
24401;SDS011;12539;48.808;11.292;2022-08-14T02:00:53;6.00;;;4.88;;
24401;SDS011;12539;48.808;11.292;2022-08-14T02:03:20;7.28;;;6.60;;
24401;SDS011;12539;48.808;11.292;2022-08-14T02:05:47;5.35;;;4.85;;
24401;SDS011;12539;48.808;11.292;2022-08-14T02:08:13;6.13;;;5.35;;
24401;SDS011;12539;48.808;11.292;2022-08-14T02:10:40;5.78;;;4.93;;
24401;SDS011;12539;48.808;11.292;2022-08-14T02:13:06;6.60;;;5.18;;
24401;SDS011;12539;48.808;11.292;2022-08-14T02:15:35;7.40;;;5.25;;
24401;SDS011;12539;48.808;11.292;2022-08-14T02:18:02;6.13;;;5.53;;
24401;SDS011;12539;48.808;11.292;2022-08-14T02:20:31;5.72;;;5.22;;
24401;SDS011;12539;48.808;11.292;2022-08-14T02:23:01;6.27;;;5.70;;
24401;SDS011;12539;48.808;11.292;2022-08-14T02:25:27;5.88;;;5.28;;
24401;SDS011;12539;48.808;11.292;2022-08-14T02:27:54;5.57;;;5.07;;
24401;SDS011;12539;48.808;11.292;2022-08-14T02:30:22;6.80;;;6.15;;
24401;SDS011;12539;48.808;11.292;2022-08-14T02:32:50;6.82;;;6.20;;
24401;SDS011;12539;48.808;11.292;2022-08-14T02:35:16;7.22;;;6.35;;
24401;SDS011;12539;48.808;11.292;2022-08-14T02:37:43;6.20;;;5.60;;
24401;SDS011;12539;48.808;11.292;2022-08-14T02:40:10;7.00;;;6.40;;
24401;SDS011;12539;48.808;11.292;2022-08-14T02:42:36;6.50;;;5.90;;
24401;SDS011;12539;48.808;11.292;2022-08-14T02:45:03;6.95;;;6.35;;
24401;SDS011;12539;48.808;11.292;2022-08-14T02:47:30;6.03;;;5.47;;
24401;SDS011;12539;48.808;11.292;2022-08-14T02:49:56;7.57;;;5.45;;
24401;SDS011;12539;48.808;11.292;2022-08-14T02:52:22;6.85;;;6.25;;
24401;SDS011;12539;48.808;11.292;2022-08-14T02:54:50;6.22;;;5.70;;
24401;SDS011;12539;48.808;11.292;2022-08-14T02:57:16;6.32;;;5.70;;
24401;SDS011;12539;48.808;11.292;2022-08-14T02:59:42;6.63;;;5.97;;
24401;SDS011;12539;48.808;11.292;2022-08-14T03:02:08;6.45;;;5.85;;
24401;SDS011;12539;48.808;11.292;2022-08-14T03:04:34;5.80;;;5.20;;
24401;SDS011;12539;48.808;11.292;2022-08-14T03:07:00;8.70;;;6.55;;
24401;SDS011;12539;48.808;11.292;2022-08-14T03:09:25;7.57;;;5.97;;
24401;SDS011;12539;48.808;11.292;2022-08-14T03:11:51;6.78;;;6.07;;
24401;SDS011;12539;48.808;11.292;2022-08-14T03:14:17;10.73;;;5.90;;
24401;SDS011;12539;48.808;11.292;2022-08-14T03:16:45;8.45;;;5.68;;
24401;SDS011;12539;48.808;11.292;2022-08-14T03:19:12;6.95;;;6.30;;
24401;SDS011;12539;48.808;11.292;2022-08-14T03:21:38;5.65;;;5.15;;
24401;SDS011;12539;48.808;11.292;2022-08-14T03:24:04;5.55;;;5.07;;
24401;SDS011;12539;48.808;11.292;2022-08-14T03:26:43;7.90;;;6.22;;
24401;SDS011;12539;48.808;11.292;2022-08-14T03:29:11;7.68;;;6.28;;
24401;SDS011;12539;48.808;11.292;2022-08-14T03:31:39;9.30;;;6.75;;
24401;SDS011;12539;48.808;11.292;2022-08-14T03:34:08;8.02;;;6.80;;
24401;SDS011;12539;48.808;11.292;2022-08-14T03:36:35;8.30;;;6.43;;
24401;SDS011;12539;48.808;11.292;2022-08-14T03:39:04;5.80;;;5.30;;
24401;SDS011;12539;48.808;11.292;2022-08-14T03:41:31;8.50;;;7.60;;
24401;SDS011;12539;48.808;11.292;2022-08-14T03:43:58;8.15;;;7.45;;
24401;SDS011;12539;48.808;11.292;2022-08-14T03:46:35;8.02;;;7.15;;
24401;SDS011;12539;48.808;11.292;2022-08-14T03:49:02;8.07;;;7.28;;
24401;SDS011;12539;48.808;11.292;2022-08-14T03:51:29;9.02;;;7.63;;
24401;SDS011;12539;48.808;11.292;2022-08-14T03:53:56;7.60;;;6.90;;
24401;SDS011;12539;48.808;11.292;2022-08-14T03:56:24;9.07;;;8.13;;
24401;SDS011;12539;48.808;11.292;2022-08-14T03:58:52;7.93;;;7.22;;
24401;SDS011;12539;48.808;11.292;2022-08-14T04:01:20;8.60;;;7.70;;
24401;SDS011;12539;48.808;11.292;2022-08-14T04:03:48;9.48;;;8.38;;
24401;SDS011;12539;48.808;11.292;2022-08-14T04:06:16;8.93;;;8.02;;
24401;SDS011;12539;48.808;11.292;2022-08-14T04:08:44;8.30;;;7.47;;
24401;SDS011;12539;48.808;11.292;2022-08-14T04:11:10;10.55;;;8.15;;
24401;SDS011;12539;48.808;11.292;2022-08-14T04:13:37;9.32;;;8.32;;
24401;SDS011;12539;48.808;11.292;2022-08-14T04:16:06;8.82;;;8.02;;
24401;SDS011;12539;48.808;11.292;2022-08-14T04:18:39;9.85;;;8.80;;
24401;SDS011;12539;48.808;11.292;2022-08-14T04:21:06;8.20;;;7.40;;
24401;SDS011;12539;48.808;11.292;2022-08-14T04:23:32;7.38;;;6.68;;
24401;SDS011;12539;48.808;11.292;2022-08-14T04:25:59;6.95;;;6.25;;
24401;SDS011;12539;48.808;11.292;2022-08-14T04:28:26;9.60;;;8.63;;
24401;SDS011;12539;48.808;11.292;2022-08-14T04:30:52;7.95;;;7.18;;
24401;SDS011;12539;48.808;11.292;2022-08-14T04:33:18;7.38;;;6.68;;
24401;SDS011;12539;48.808;11.292;2022-08-14T04:35:44;8.57;;;7.78;;
24401;SDS011;12539;48.808;11.292;2022-08-14T04:38:10;8.00;;;6.80;;
24401;SDS011;12539;48.808;11.292;2022-08-14T04:40:55;7.78;;;7.03;;
24401;SDS011;12539;48.808;11.292;2022-08-14T04:43:39;8.50;;;7.70;;
24401;SDS011;12539;48.808;11.292;2022-08-14T04:48:36;8.95;;;8.07;;
24401;SDS011;12539;48.808;11.292;2022-08-14T04:51:09;8.75;;;7.85;;
24401;SDS011;12539;48.808;11.292;2022-08-14T04:53:38;7.72;;;6.80;;
24401;SDS011;12539;48.808;11.292;2022-08-14T04:56:09;8.48;;;7.25;;
24401;SDS011;12539;48.808;11.292;2022-08-14T04:58:37;8.73;;;7.85;;
24401;SDS011;12539;48.808;11.292;2022-08-14T05:01:04;9.32;;;7.65;;
24401;SDS011;12539;48.808;11.292;2022-08-14T05:03:32;7.35;;;6.60;;
24401;SDS011;12539;48.808;11.292;2022-08-14T05:06:01;6.20;;;5.63;;
24401;SDS011;12539;48.808;11.292;2022-08-14T05:08:29;7.03;;;6.38;;
24401;SDS011;12539;48.808;11.292;2022-08-14T05:10:57;8.48;;;7.45;;
24401;SDS011;12539;48.808;11.292;2022-08-14T05:13:26;7.68;;;6.97;;
24401;SDS011;12539;48.808;11.292;2022-08-14T05:15:53;7.45;;;6.72;;
24401;SDS011;12539;48.808;11.292;2022-08-14T05:18:23;7.68;;;6.95;;
24401;SDS011;12539;48.808;11.292;2022-08-14T05:23:19;7.53;;;6.82;;
24401;SDS011;12539;48.808;11.292;2022-08-14T05:25:47;10.27;;;9.00;;
24401;SDS011;12539;48.808;11.292;2022-08-14T05:28:19;8.90;;;8.00;;
24401;SDS011;12539;48.808;11.292;2022-08-14T05:33:38;9.73;;;8.07;;
24401;SDS011;12539;48.808;11.292;2022-08-14T05:36:08;13.80;;;9.75;;
24401;SDS011;12539;48.808;11.292;2022-08-14T05:38:41;11.30;;;8.88;;
24401;SDS011;12539;48.808;11.292;2022-08-14T05:41:09;10.32;;;8.98;;
24401;SDS011;12539;48.808;11.292;2022-08-14T05:43:37;13.73;;;10.88;;
24401;SDS011;12539;48.808;11.292;2022-08-14T05:46:04;12.98;;;9.73;;
24401;SDS011;12539;48.808;11.292;2022-08-14T05:48:31;10.15;;;8.05;;
24401;SDS011;12539;48.808;11.292;2022-08-14T05:50:57;8.98;;;8.10;;
24401;SDS011;12539;48.808;11.292;2022-08-14T05:53:24;10.43;;;9.32;;
24401;SDS011;12539;48.808;11.292;2022-08-14T05:55:54;9.52;;;8.32;;
24401;SDS011;12539;48.808;11.292;2022-08-14T05:58:29;12.02;;;8.45;;
24401;SDS011;12539;48.808;11.292;2022-08-14T06:00:54;10.23;;;8.23;;
24401;SDS011;12539;48.808;11.292;2022-08-14T06:03:21;11.75;;;9.48;;
24401;SDS011;12539;48.808;11.292;2022-08-14T06:05:49;11.60;;;8.52;;
24401;SDS011;12539;48.808;11.292;2022-08-14T06:10:49;10.65;;;8.82;;
24401;SDS011;12539;48.808;11.292;2022-08-14T06:13:17;9.98;;;8.85;;
24401;SDS011;12539;48.808;11.292;2022-08-14T06:15:44;9.60;;;8.23;;
24401;SDS011;12539;48.808;11.292;2022-08-14T06:18:11;10.40;;;8.77;;
24401;SDS011;12539;48.808;11.292;2022-08-14T06:20:37;9.55;;;7.57;;
24401;SDS011;12539;48.808;11.292;2022-08-14T06:23:03;9.85;;;7.28;;
24401;SDS011;12539;48.808;11.292;2022-08-14T06:25:29;8.45;;;7.55;;
24401;SDS011;12539;48.808;11.292;2022-08-14T06:27:55;8.65;;;7.32;;
24401;SDS011;12539;48.808;11.292;2022-08-14T06:30:23;9.30;;;7.03;;
24401;SDS011;12539;48.808;11.292;2022-08-14T06:32:51;10.48;;;7.30;;
24401;SDS011;12539;48.808;11.292;2022-08-14T06:35:17;8.30;;;7.22;;
24401;SDS011;12539;48.808;11.292;2022-08-14T06:37:54;8.02;;;6.85;;
24401;SDS011;12539;48.808;11.292;2022-08-14T06:40:26;8.82;;;7.78;;
24401;SDS011;12539;48.808;11.292;2022-08-14T06:43:04;9.68;;;6.22;;
24401;SDS011;12539;48.808;11.292;2022-08-14T06:45:32;8.90;;;7.65;;
24401;SDS011;12539;48.808;11.292;2022-08-14T06:47:59;8.93;;;7.40;;
24401;SDS011;12539;48.808;11.292;2022-08-14T06:50:25;8.10;;;7.22;;
24401;SDS011;12539;48.808;11.292;2022-08-14T06:52:53;9.05;;;7.85;;
24401;SDS011;12539;48.808;11.292;2022-08-14T06:55:19;9.70;;;8.75;;
24401;SDS011;12539;48.808;11.292;2022-08-14T06:57:45;8.60;;;7.80;;
24401;SDS011;12539;48.808;11.292;2022-08-14T07:00:18;8.88;;;8.00;;
24401;SDS011;12539;48.808;11.292;2022-08-14T07:02:45;8.15;;;7.35;;
24401;SDS011;12539;48.808;11.292;2022-08-14T07:05:30;7.82;;;7.03;;
24401;SDS011;12539;48.808;11.292;2022-08-14T07:08:24;9.05;;;8.13;;
24401;SDS011;12539;48.808;11.292;2022-08-14T07:10:53;8.73;;;7.95;;
24401;SDS011;12539;48.808;11.292;2022-08-14T07:15:49;8.25;;;7.32;;
24401;SDS011;12539;48.808;11.292;2022-08-14T07:18:20;8.27;;;7.40;;
24401;SDS011;12539;48.808;11.292;2022-08-14T07:20:51;8.35;;;7.55;;
24401;SDS011;12539;48.808;11.292;2022-08-14T07:23:18;8.88;;;8.07;;
24401;SDS011;12539;48.808;11.292;2022-08-14T07:25:45;8.30;;;7.53;;
24401;SDS011;12539;48.808;11.292;2022-08-14T07:28:12;8.35;;;7.50;;
24401;SDS011;12539;48.808;11.292;2022-08-14T07:30:40;9.00;;;8.10;;
24401;SDS011;12539;48.808;11.292;2022-08-14T07:33:06;8.13;;;6.40;;
24401;SDS011;12539;48.808;11.292;2022-08-14T07:35:33;9.20;;;7.45;;
24401;SDS011;12539;48.808;11.292;2022-08-14T07:37:59;7.75;;;6.93;;
24401;SDS011;12539;48.808;11.292;2022-08-14T07:40:25;7.65;;;6.53;;
24401;SDS011;12539;48.808;11.292;2022-08-14T07:42:51;8.13;;;6.95;;
24401;SDS011;12539;48.808;11.292;2022-08-14T07:45:17;8.13;;;7.38;;
24401;SDS011;12539;48.808;11.292;2022-08-14T07:47:43;8.30;;;7.25;;
24401;SDS011;12539;48.808;11.292;2022-08-14T07:52:40;8.32;;;7.13;;
24401;SDS011;12539;48.808;11.292;2022-08-14T07:55:07;8.43;;;6.60;;
24401;SDS011;12539;48.808;11.292;2022-08-14T07:57:33;7.30;;;6.57;;
24401;SDS011;12539;48.808;11.292;2022-08-14T07:59:59;9.10;;;7.40;;
24401;SDS011;12539;48.808;11.292;2022-08-14T08:02:27;9.68;;;7.57;;
24401;SDS011;12539;48.808;11.292;2022-08-14T08:04:55;7.75;;;6.43;;
24401;SDS011;12539;48.808;11.292;2022-08-14T08:07:25;6.80;;;6.20;;
24401;SDS011;12539;48.808;11.292;2022-08-14T08:09:54;7.43;;;6.57;;
24401;SDS011;12539;48.808;11.292;2022-08-14T08:12:24;8.32;;;7.15;;
24401;SDS011;12539;48.808;11.292;2022-08-14T08:14:50;6.53;;;5.93;;
24401;SDS011;12539;48.808;11.292;2022-08-14T08:17:17;8.25;;;6.78;;
24401;SDS011;12539;48.808;11.292;2022-08-14T08:19:44;6.78;;;5.95;;
24401;SDS011;12539;48.808;11.292;2022-08-14T08:22:14;5.70;;;5.20;;
24401;SDS011;12539;48.808;11.292;2022-08-14T08:24:40;8.98;;;7.57;;
24401;SDS011;12539;48.808;11.292;2022-08-14T08:27:15;7.65;;;6.20;;
24401;SDS011;12539;48.808;11.292;2022-08-14T08:29:42;6.60;;;6.00;;
24401;SDS011;12539;48.808;11.292;2022-08-14T08:32:08;6.82;;;6.10;;
24401;SDS011;12539;48.808;11.292;2022-08-14T08:34:46;8.85;;;6.32;;
24401;SDS011;12539;48.808;11.292;2022-08-14T08:37:12;7.35;;;6.50;;
24401;SDS011;12539;48.808;11.292;2022-08-14T08:39:45;6.60;;;6.03;;
24401;SDS011;12539;48.808;11.292;2022-08-14T08:42:12;8.00;;;7.20;;
24401;SDS011;12539;48.808;11.292;2022-08-14T08:44:52;6.43;;;5.80;;
24401;SDS011;12539;48.808;11.292;2022-08-14T08:49:44;6.07;;;5.43;;
24401;SDS011;12539;48.808;11.292;2022-08-14T08:52:10;6.47;;;5.88;;
24401;SDS011;12539;48.808;11.292;2022-08-14T08:54:35;6.07;;;5.40;;
24401;SDS011;12539;48.808;11.292;2022-08-14T08:57:09;7.60;;;6.95;;
24401;SDS011;12539;48.808;11.292;2022-08-14T08:59:36;7.30;;;6.63;;
24401;SDS011;12539;48.808;11.292;2022-08-14T09:02:04;6.88;;;6.32;;
24401;SDS011;12539;48.808;11.292;2022-08-14T09:04:37;7.43;;;6.55;;
24401;SDS011;12539;48.808;11.292;2022-08-14T09:07:08;6.22;;;5.60;;
24401;SDS011;12539;48.808;11.292;2022-08-14T09:09:34;6.47;;;5.88;;
24401;SDS011;12539;48.808;11.292;2022-08-14T09:12:17;6.60;;;5.85;;
24401;SDS011;12539;48.808;11.292;2022-08-14T09:14:43;6.80;;;6.10;;
24401;SDS011;12539;48.808;11.292;2022-08-14T09:17:11;6.88;;;6.28;;
24401;SDS011;12539;48.808;11.292;2022-08-14T09:19:37;9.48;;;8.57;;
24401;SDS011;12539;48.808;11.292;2022-08-14T09:22:04;8.65;;;6.65;;
24401;SDS011;12539;48.808;11.292;2022-08-14T09:24:30;7.60;;;6.90;;
24401;SDS011;12539;48.808;11.292;2022-08-14T09:26:56;5.40;;;4.97;;
24401;SDS011;12539;48.808;11.292;2022-08-14T09:29:22;8.55;;;7.03;;
24401;SDS011;12539;48.808;11.292;2022-08-14T09:31:54;7.03;;;6.43;;
24401;SDS011;12539;48.808;11.292;2022-08-14T09:34:29;7.47;;;6.78;;
24401;SDS011;12539;48.808;11.292;2022-08-14T09:40:41;7.15;;;6.45;;
24401;SDS011;12539;48.808;11.292;2022-08-14T09:46:52;6.45;;;5.85;;
24401;SDS011;12539;48.808;11.292;2022-08-14T09:49:28;6.85;;;6.25;;
24401;SDS011;12539;48.808;11.292;2022-08-14T09:52:02;6.70;;;6.10;;
24401;SDS011;12539;48.808;11.292;2022-08-14T09:54:37;7.07;;;6.20;;
24401;SDS011;12539;48.808;11.292;2022-08-14T09:57:04;6.57;;;5.93;;
24401;SDS011;12539;48.808;11.292;2022-08-14T09:59:46;7.28;;;6.57;;
24401;SDS011;12539;48.808;11.292;2022-08-14T10:02:31;6.22;;;5.65;;
24401;SDS011;12539;48.808;11.292;2022-08-14T10:05:07;6.55;;;5.95;;
24401;SDS011;12539;48.808;11.292;2022-08-14T10:07:35;5.60;;;5.10;;
24401;SDS011;12539;48.808;11.292;2022-08-14T10:10:25;7.47;;;4.93;;
24401;SDS011;12539;48.808;11.292;2022-08-14T10:12:53;6.82;;;4.75;;
24401;SDS011;12539;48.808;11.292;2022-08-14T10:15:20;5.85;;;5.35;;
24401;SDS011;12539;48.808;11.292;2022-08-14T10:17:49;5.78;;;5.18;;
24401;SDS011;12539;48.808;11.292;2022-08-14T10:20:33;9.13;;;5.60;;
24401;SDS011;12539;48.808;11.292;2022-08-14T10:23:09;6.07;;;5.43;;
24401;SDS011;12539;48.808;11.292;2022-08-14T10:25:49;5.40;;;4.90;;
24401;SDS011;12539;48.808;11.292;2022-08-14T10:28:17;6.13;;;4.85;;
24401;SDS011;12539;48.808;11.292;2022-08-14T10:30:45;5.78;;;5.28;;
24401;SDS011;12539;48.808;11.292;2022-08-14T10:33:30;6.28;;;4.82;;
24401;SDS011;12539;48.808;11.292;2022-08-14T10:35:57;4.53;;;3.90;;
24401;SDS011;12539;48.808;11.292;2022-08-14T10:41:13;5.53;;;5.03;;
24401;SDS011;12539;48.808;11.292;2022-08-14T10:43:40;6.53;;;5.75;;
24401;SDS011;12539;48.808;11.292;2022-08-14T10:46:15;5.72;;;5.13;;
24401;SDS011;12539;48.808;11.292;2022-08-14T10:48:55;4.95;;;4.50;;
24401;SDS011;12539;48.808;11.292;2022-08-14T10:51:29;5.05;;;4.65;;
24401;SDS011;12539;48.808;11.292;2022-08-14T10:53:58;5.68;;;5.18;;
24401;SDS011;12539;48.808;11.292;2022-08-14T10:56:32;4.43;;;4.03;;
24401;SDS011;12539;48.808;11.292;2022-08-14T10:59:03;5.32;;;4.93;;
24401;SDS011;12539;48.808;11.292;2022-08-14T11:06:26;5.03;;;4.53;;
24401;SDS011;12539;48.808;11.292;2022-08-14T11:08:55;5.60;;;5.10;;
24401;SDS011;12539;48.808;11.292;2022-08-14T11:11:21;5.72;;;5.22;;
24401;SDS011;12539;48.808;11.292;2022-08-14T11:13:53;4.50;;;4.10;;
24401;SDS011;12539;48.808;11.292;2022-08-14T11:16:21;4.65;;;4.20;;
24401;SDS011;12539;48.808;11.292;2022-08-14T11:18:48;5.07;;;4.68;;
24401;SDS011;12539;48.808;11.292;2022-08-14T11:21:16;5.20;;;4.30;;
24401;SDS011;12539;48.808;11.292;2022-08-14T11:23:45;5.30;;;4.80;;
24401;SDS011;12539;48.808;11.292;2022-08-14T11:26:13;5.13;;;4.72;;
24401;SDS011;12539;48.808;11.292;2022-08-14T11:28:44;4.68;;;4.28;;
24401;SDS011;12539;48.808;11.292;2022-08-14T11:31:13;4.65;;;4.25;;
24401;SDS011;12539;48.808;11.292;2022-08-14T11:33:46;5.55;;;5.05;;
24401;SDS011;12539;48.808;11.292;2022-08-14T11:36:22;4.40;;;4.00;;
24401;SDS011;12539;48.808;11.292;2022-08-14T11:38:52;4.95;;;4.55;;
24401;SDS011;12539;48.808;11.292;2022-08-14T11:41:19;5.13;;;4.43;;
24401;SDS011;12539;48.808;11.292;2022-08-14T11:43:46;4.63;;;4.22;;
24401;SDS011;12539;48.808;11.292;2022-08-14T11:46:14;5.93;;;4.10;;
24401;SDS011;12539;48.808;11.292;2022-08-14T11:48:51;4.57;;;3.83;;
24401;SDS011;12539;48.808;11.292;2022-08-14T11:51:19;4.75;;;4.07;;
24401;SDS011;12539;48.808;11.292;2022-08-14T11:54:05;4.93;;;4.32;;
24401;SDS011;12539;48.808;11.292;2022-08-14T11:56:35;4.78;;;4.38;;
24401;SDS011;12539;48.808;11.292;2022-08-14T11:59:04;4.90;;;4.22;;
24401;SDS011;12539;48.808;11.292;2022-08-14T12:01:31;4.57;;;3.85;;
24401;SDS011;12539;48.808;11.292;2022-08-14T12:06:53;4.55;;;4.03;;
24401;SDS011;12539;48.808;11.292;2022-08-14T12:09:54;4.18;;;3.88;;
24401;SDS011;12539;48.808;11.292;2022-08-14T12:12:17;3.95;;;3.65;;
24401;SDS011;12539;48.808;11.292;2022-08-14T12:14:55;3.88;;;3.58;;
24401;SDS011;12539;48.808;11.292;2022-08-14T12:17:27;4.38;;;3.88;;
24401;SDS011;12539;48.808;11.292;2022-08-14T12:20:02;4.05;;;3.70;;
24401;SDS011;12539;48.808;11.292;2022-08-14T12:22:31;4.68;;;4.28;;
24401;SDS011;12539;48.808;11.292;2022-08-14T12:25:01;3.78;;;3.47;;
24401;SDS011;12539;48.808;11.292;2022-08-14T12:27:36;6.80;;;4.22;;
24401;SDS011;12539;48.808;11.292;2022-08-14T12:30:06;3.90;;;3.58;;
24401;SDS011;12539;48.808;11.292;2022-08-14T12:32:42;4.20;;;3.80;;
24401;SDS011;12539;48.808;11.292;2022-08-14T12:35:11;4.93;;;4.32;;
24401;SDS011;12539;48.808;11.292;2022-08-14T12:37:37;4.10;;;3.70;;
24401;SDS011;12539;48.808;11.292;2022-08-14T12:40:10;3.67;;;3.38;;
24401;SDS011;12539;48.808;11.292;2022-08-14T12:42:37;4.40;;;3.67;;
24401;SDS011;12539;48.808;11.292;2022-08-14T12:45:04;4.35;;;4.00;;
24401;SDS011;12539;48.808;11.292;2022-08-14T12:47:31;4.28;;;3.97;;
24401;SDS011;12539;48.808;11.292;2022-08-14T12:49:57;5.22;;;4.00;;
24401;SDS011;12539;48.808;11.292;2022-08-14T12:52:30;5.05;;;4.10;;
24401;SDS011;12539;48.808;11.292;2022-08-14T12:55:04;3.90;;;3.60;;
24401;SDS011;12539;48.808;11.292;2022-08-14T12:57:34;3.57;;;3.27;;
24401;SDS011;12539;48.808;11.292;2022-08-14T13:00:22;4.00;;;3.70;;
24401;SDS011;12539;48.808;11.292;2022-08-14T13:02:50;4.15;;;3.75;;
24401;SDS011;12539;48.808;11.292;2022-08-14T13:05:21;4.10;;;3.70;;
24401;SDS011;12539;48.808;11.292;2022-08-14T13:07:48;4.05;;;3.67;;
24401;SDS011;12539;48.808;11.292;2022-08-14T13:10:16;4.25;;;3.85;;
24401;SDS011;12539;48.808;11.292;2022-08-14T13:12:44;4.20;;;3.80;;
24401;SDS011;12539;48.808;11.292;2022-08-14T13:15:12;4.20;;;3.50;;
24401;SDS011;12539;48.808;11.292;2022-08-14T13:20:04;3.53;;;3.22;;
24401;SDS011;12539;48.808;11.292;2022-08-14T13:22:30;3.45;;;3.15;;
24401;SDS011;12539;48.808;11.292;2022-08-14T13:25:09;4.13;;;3.72;;
24401;SDS011;12539;48.808;11.292;2022-08-14T13:27:39;4.57;;;3.33;;
24401;SDS011;12539;48.808;11.292;2022-08-14T13:30:10;4.38;;;3.92;;
24401;SDS011;12539;48.808;11.292;2022-08-14T13:32:37;4.28;;;3.35;;
24401;SDS011;12539;48.808;11.292;2022-08-14T13:35:05;3.42;;;3.13;;
24401;SDS011;12539;48.808;11.292;2022-08-14T13:37:32;4.90;;;3.70;;
24401;SDS011;12539;48.808;11.292;2022-08-14T13:39:58;3.55;;;3.25;;
24401;SDS011;12539;48.808;11.292;2022-08-14T13:42:24;3.70;;;3.40;;
24401;SDS011;12539;48.808;11.292;2022-08-14T13:44:52;3.38;;;3.08;;
24401;SDS011;12539;48.808;11.292;2022-08-14T13:47:20;4.30;;;3.90;;
24401;SDS011;12539;48.808;11.292;2022-08-14T13:49:48;4.38;;;3.97;;
24401;SDS011;12539;48.808;11.292;2022-08-14T13:52:16;4.65;;;4.15;;
24401;SDS011;12539;48.808;11.292;2022-08-14T13:54:45;3.83;;;3.53;;
24401;SDS011;12539;48.808;11.292;2022-08-14T13:57:12;4.15;;;3.75;;
24401;SDS011;12539;48.808;11.292;2022-08-14T13:59:42;3.42;;;3.13;;
24401;SDS011;12539;48.808;11.292;2022-08-14T14:02:10;3.67;;;3.38;;
24401;SDS011;12539;48.808;11.292;2022-08-14T14:04:41;3.40;;;3.10;;
24401;SDS011;12539;48.808;11.292;2022-08-14T14:07:09;3.53;;;3.22;;
24401;SDS011;12539;48.808;11.292;2022-08-14T14:09:38;3.42;;;3.13;;
24401;SDS011;12539;48.808;11.292;2022-08-14T14:12:05;5.53;;;3.38;;
24401;SDS011;12539;48.808;11.292;2022-08-14T14:14:33;3.58;;;3.28;;
24401;SDS011;12539;48.808;11.292;2022-08-14T14:17:02;4.78;;;3.67;;
24401;SDS011;12539;48.808;11.292;2022-08-14T14:22:01;4.20;;;3.80;;
24401;SDS011;12539;48.808;11.292;2022-08-14T14:24:30;5.05;;;4.55;;
24401;SDS011;12539;48.808;11.292;2022-08-14T14:26:58;5.78;;;4.28;;
24401;SDS011;12539;48.808;11.292;2022-08-14T14:29:27;5.93;;;4.13;;
24401;SDS011;12539;48.808;11.292;2022-08-14T14:31:55;4.50;;;4.10;;
24401;SDS011;12539;48.808;11.292;2022-08-14T14:34:23;5.53;;;3.90;;
24401;SDS011;12539;48.808;11.292;2022-08-14T14:36:50;5.28;;;4.18;;
24401;SDS011;12539;48.808;11.292;2022-08-14T14:39:19;4.70;;;3.70;;
24401;SDS011;12539;48.808;11.292;2022-08-14T14:41:50;4.90;;;4.47;;
24401;SDS011;12539;48.808;11.292;2022-08-14T14:44:21;4.63;;;3.55;;
24401;SDS011;12539;48.808;11.292;2022-08-14T14:46:48;4.95;;;3.28;;
24401;SDS011;12539;48.808;11.292;2022-08-14T14:49:14;5.75;;;4.30;;
24401;SDS011;12539;48.808;11.292;2022-08-14T14:51:43;6.65;;;4.15;;
24401;SDS011;12539;48.808;11.292;2022-08-14T14:54:10;4.03;;;3.72;;
24401;SDS011;12539;48.808;11.292;2022-08-14T14:56:40;5.70;;;4.20;;
24401;SDS011;12539;48.808;11.292;2022-08-14T14:59:07;5.97;;;3.88;;
24401;SDS011;12539;48.808;11.292;2022-08-14T15:01:37;5.30;;;3.92;;
24401;SDS011;12539;48.808;11.292;2022-08-14T15:04:03;4.43;;;4.03;;
24401;SDS011;12539;48.808;11.292;2022-08-14T15:06:32;4.43;;;4.03;;
24401;SDS011;12539;48.808;11.292;2022-08-14T15:08:58;4.15;;;3.70;;
24401;SDS011;12539;48.808;11.292;2022-08-14T15:11:24;4.15;;;3.85;;
24401;SDS011;12539;48.808;11.292;2022-08-14T15:13:50;4.28;;;3.88;;
24401;SDS011;12539;48.808;11.292;2022-08-14T15:16:16;5.10;;;3.85;;
24401;SDS011;12539;48.808;11.292;2022-08-14T15:18:42;4.38;;;3.97;;
24401;SDS011;12539;48.808;11.292;2022-08-14T15:21:09;5.50;;;3.85;;
24401;SDS011;12539;48.808;11.292;2022-08-14T15:23:35;4.43;;;3.40;;
24401;SDS011;12539;48.808;11.292;2022-08-14T15:26:00;7.22;;;3.55;;